Time;durP1;ratioP1;P1;durP2;ratioP2;P2;SDS_P1;SDS_P2;PMS_P1;PMS_P2;Temp;Humidity;BMP_temperature;BMP_pressure;BME280_temperature;BME280_humidity;BME280_pressure;Samples;Min_cycle;Max_cycle;Signal;HPM_P1;HPM_P2
2021/08/14 00:01:06;;;;;;;7.15;2.17;;;;;;;;;;5092845;28;20024;-65
2021/08/14 00:03:32;;;;;;;7.18;2.30;;;;;;;;;;5093005;28;20028;-65
2021/08/14 00:05:58;;;;;;;4.07;1.70;;;;;;;;;;5092895;28;20487;-65
2021/08/14 00:08:24;;;;;;;7.15;1.95;;;;;;;;;;5092806;28;20446;-65
2021/08/14 00:10:50;;;;;;;7.93;2.58;;;;;;;;;;5074647;28;20483;-65
2021/08/14 00:13:16;;;;;;;7.70;1.75;;;;;;;;;;5092826;28;20096;-65
2021/08/14 00:15:42;;;;;;;7.32;2.33;;;;;;;;;;5092898;28;20074;-69
2021/08/14 00:18:08;;;;;;;5.88;2.03;;;;;;;;;;5092953;28;20051;-66
2021/08/14 00:20:34;;;;;;;7.53;2.05;;;;;;;;;;5092970;28;20368;-66
2021/08/14 00:23:00;;;;;;;4.28;1.58;;;;;;;;;;5092739;28;20024;-69
2021/08/14 00:25:27;;;;;;;5.97;1.73;;;;;;;;;;5092893;28;20371;-66
2021/08/14 00:27:53;;;;;;;3.95;1.50;;;;;;;;;;5093029;28;20032;-68
2021/08/14 00:30:20;;;;;;;7.43;1.92;;;;;;;;;;5092914;28;20085;-66
2021/08/14 00:32:46;;;;;;;3.17;1.60;;;;;;;;;;5092867;28;20539;-66
2021/08/14 00:35:12;;;;;;;7.13;2.20;;;;;;;;;;5092653;28;20150;-71
2021/08/14 00:37:38;;;;;;;3.13;1.70;;;;;;;;;;5074667;28;20035;-65
2021/08/14 00:40:04;;;;;;;3.30;1.80;;;;;;;;;;5092639;28;20022;-65
2021/08/14 00:42:30;;;;;;;4.50;1.50;;;;;;;;;;5092833;28;20027;-73
2021/08/14 00:45:00;;;;;;;2.95;1.60;;;;;;;;;;5092892;28;20031;-67
2021/08/14 00:47:26;;;;;;;5.97;1.75;;;;;;;;;;5092713;28;20016;-65
2021/08/14 00:49:53;;;;;;;3.42;1.83;;;;;;;;;;5092810;28;20024;-65
2021/08/14 00:52:19;;;;;;;5.47;1.80;;;;;;;;;;5074475;28;20028;-65
2021/08/14 00:54:45;;;;;;;4.28;2.00;;;;;;;;;;5092887;28;20021;-66
2021/08/14 00:57:11;;;;;;;5.00;1.95;;;;;;;;;;5112878;28;20035;-65
2021/08/14 00:59:37;;;;;;;4.75;2.10;;;;;;;;;;5112829;28;20459;-66
2021/08/14 01:02:07;;;;;;;8.23;2.28;;;;;;;;;;5094711;28;20382;-65
2021/08/14 01:04:33;;;;;;;5.43;1.90;;;;;;;;;;5115895;28;20089;-65
2021/08/14 01:06:59;;;;;;;4.45;1.60;;;;;;;;;;5098586;28;20020;-65
2021/08/14 01:09:27;;;;;;;14.82;1.63;;;;;;;;;;5116728;28;20027;-67
2021/08/14 01:11:53;;;;;;;7.13;1.80;;;;;;;;;;5098076;28;20039;-64
2021/08/14 01:14:19;;;;;;;5.75;1.70;;;;;;;;;;5116776;28;20086;-67
2021/08/14 01:16:45;;;;;;;7.97;2.22;;;;;;;;;;5116679;28;20027;-64
2021/08/14 01:19:11;;;;;;;5.15;1.77;;;;;;;;;;5116504;28;20020;-65
2021/08/14 01:21:37;;;;;;;7.35;1.83;;;;;;;;;;5116387;28;20104;-65
2021/08/14 01:24:04;;;;;;;5.65;2.05;;;;;;;;;;5116496;28;20027;-64
2021/08/14 01:26:30;;;;;;;7.90;2.05;;;;;;;;;;5116342;28;20027;-65
2021/08/14 01:28:56;;;;;;;4.85;2.00;;;;;;;;;;5098180;28;20119;-64
2021/08/14 01:31:22;;;;;;;6.57;1.85;;;;;;;;;;5115135;28;20028;-65
2021/08/14 01:33:48;;;;;;;8.35;2.00;;;;;;;;;;5095996;28;20028;-64
2021/08/14 01:36:16;;;;;;;4.15;1.75;;;;;;;;;;5095561;28;20096;-67
2021/08/14 01:38:44;;;;;;;5.75;1.88;;;;;;;;;;5095902;28;20432;-65
2021/08/14 01:41:10;;;;;;;6.25;1.90;;;;;;;;;;5095614;28;20482;-66
2021/08/14 01:43:49;;;;;;;8.93;1.90;;;;;;;;;;5095740;28;20024;-69
2021/08/14 01:46:15;;;;;;;7.10;1.88;;;;;;;;;;5095587;28;20030;-71
2021/08/14 01:48:41;;;;;;;10.60;1.90;;;;;;;;;;5095547;28;20035;-65
2021/08/14 01:51:07;;;;;;;16.00;1.85;;;;;;;;;;5095316;28;20032;-65
2021/08/14 01:53:33;;;;;;;4.85;1.83;;;;;;;;;;5077263;28;20106;-64
2021/08/14 01:55:59;;;;;;;9.23;2.30;;;;;;;;;;5106130;28;20032;-65
2021/08/14 01:58:25;;;;;;;12.35;3.03;;;;;;;;;;5115905;28;20470;-65
2021/08/14 02:00:56;;;;;;;10.45;2.92;;;;;;;;;;5115638;28;20465;-66
2021/08/14 02:03:26;;;;;;;10.95;3.17;;;;;;;;;;5115899;28;20020;-64
2021/08/14 02:05:52;;;;;;;10.82;3.70;;;;;;;;;;5115598;28;20015;-65
2021/08/14 02:08:18;;;;;;;14.15;3.40;;;;;;;;;;5115671;28;20062;-64
2021/08/14 02:10:44;;;;;;;9.93;3.05;;;;;;;;;;5097107;28;20118;-65
2021/08/14 02:13:10;;;;;;;12.75;3.55;;;;;;;;;;5115295;28;20052;-65
2021/08/14 02:15:36;;;;;;;10.73;3.03;;;;;;;;;;5115134;28;20027;-65
2021/08/14 02:18:02;;;;;;;11.65;3.50;;;;;;;;;;5115143;28;20069;-64
2021/08/14 02:20:28;;;;;;;9.43;2.97;;;;;;;;;;5097042;28;20398;-65
2021/08/14 02:22:54;;;;;;;11.68;3.15;;;;;;;;;;5115267;28;20028;-64
2021/08/14 02:25:20;;;;;;;18.02;3.42;;;;;;;;;;5115459;28;20035;-65
2021/08/14 02:27:46;;;;;;;10.13;3.22;;;;;;;;;;5115556;28;20553;-64
2021/08/14 02:30:12;;;;;;;15.77;3.80;;;;;;;;;;5115098;28;20085;-65
2021/08/14 02:32:38;;;;;;;12.50;3.60;;;;;;;;;;5102898;28;20020;-64
2021/08/14 02:35:05;;;;;;;12.18;3.28;;;;;;;;;;5094322;28;20113;-64
2021/08/14 02:37:30;;;;;;;8.77;3.00;;;;;;;;;;5094567;28;20024;-64
2021/08/14 02:39:56;;;;;;;14.23;3.92;;;;;;;;;;5076313;28;20027;-64
2021/08/14 02:42:23;;;;;;;11.95;3.55;;;;;;;;;;5094303;28;20035;-65
2021/08/14 02:44:49;;;;;;;12.23;3.83;;;;;;;;;;5094440;28;20027;-64
2021/08/14 02:47:15;;;;;;;11.90;3.35;;;;;;;;;;5076147;28;20035;-64
2021/08/14 02:49:40;;;;;;;15.90;3.30;;;;;;;;;;5076270;28;20020;-64
2021/08/14 02:52:07;;;;;;;14.80;3.28;;;;;;;;;;5094137;28;20024;-65
2021/08/14 02:54:33;;;;;;;11.40;3.25;;;;;;;;;;5094097;28;20032;-64
2021/08/14 02:56:59;;;;;;;12.20;3.55;;;;;;;;;;5112962;28;20034;-64
2021/08/14 02:59:25;;;;;;;12.27;2.83;;;;;;;;;;5096283;28;20012;-64
2021/08/14 03:01:51;;;;;;;11.65;3.78;;;;;;;;;;5114628;28;20080;-65
2021/08/14 03:04:16;;;;;;;10.85;3.35;;;;;;;;;;5114437;28;20019;-65
2021/08/14 03:06:42;;;;;;;14.88;3.60;;;;;;;;;;5096097;28;20467;-64
2021/08/14 03:09:09;;;;;;;17.08;3.88;;;;;;;;;;5098498;28;20034;-64
2021/08/14 03:11:36;;;;;;;11.93;3.38;;;;;;;;;;5097276;28;20028;-64
2021/08/14 03:14:02;;;;;;;11.65;3.22;;;;;;;;;;5103509;28;20035;-64
2021/08/14 03:16:28;;;;;;;11.25;3.55;;;;;;;;;;5105371;28;20378;-64
2021/08/14 03:18:54;;;;;;;10.95;3.10;;;;;;;;;;5101071;28;20031;-64
2021/08/14 03:21:20;;;;;;;12.70;3.75;;;;;;;;;;5101786;28;20032;-64
2021/08/14 03:23:46;;;;;;;12.40;3.35;;;;;;;;;;5105452;28;20023;-64
2021/08/14 03:26:12;;;;;;;12.30;3.90;;;;;;;;;;5103202;28;20016;-65
2021/08/14 03:28:37;;;;;;;13.90;3.05;;;;;;;;;;5086590;28;20348;-64
2021/08/14 03:31:03;;;;;;;18.05;3.80;;;;;;;;;;5107766;28;20110;-64
2021/08/14 03:33:29;;;;;;;17.88;3.60;;;;;;;;;;5076552;28;20038;-64
2021/08/14 03:35:55;;;;;;;12.35;3.25;;;;;;;;;;5093257;28;20467;-64
2021/08/14 03:38:21;;;;;;;20.52;4.32;;;;;;;;;;5093684;28;20396;-64
2021/08/14 03:40:47;;;;;;;15.15;3.92;;;;;;;;;;5093201;28;20028;-64
2021/08/14 03:43:13;;;;;;;21.48;4.07;;;;;;;;;;5093465;28;20024;-65
2021/08/14 03:45:39;;;;;;;19.20;4.28;;;;;;;;;;5093310;28;20115;-64
2021/08/14 03:48:05;;;;;;;13.27;3.58;;;;;;;;;;5093430;28;20035;-64
2021/08/14 03:50:31;;;;;;;13.15;3.65;;;;;;;;;;5093179;28;20388;-66
2021/08/14 03:52:57;;;;;;;17.23;4.05;;;;;;;;;;5093148;28;20028;-64
2021/08/14 03:55:23;;;;;;;13.57;3.25;;;;;;;;;;5098944;28;20031;-64
2021/08/14 03:57:49;;;;;;;15.35;3.70;;;;;;;;;;5113245;28;20031;-64
2021/08/14 04:00:15;;;;;;;10.60;3.13;;;;;;;;;;5113757;28;20027;-64
2021/08/14 04:02:41;;;;;;;12.40;3.47;;;;;;;;;;5113408;28;20016;-64
2021/08/14 04:05:07;;;;;;;11.00;2.80;;;;;;;;;;5113470;28;20024;-65
2021/08/14 04:07:33;;;;;;;11.38;3.83;;;;;;;;;;5111421;28;20014;-65
2021/08/14 04:09:59;;;;;;;13.45;3.22;;;;;;;;;;5103635;28;20028;-63
2021/08/14 04:12:25;;;;;;;20.63;3.55;;;;;;;;;;5098243;28;20042;-65
2021/08/14 04:14:51;;;;;;;9.80;3.30;;;;;;;;;;5108077;28;20031;-64
2021/08/14 04:17:17;;;;;;;13.05;3.60;;;;;;;;;;5102188;28;20379;-64
2021/08/14 04:19:43;;;;;;;13.40;3.22;;;;;;;;;;5109263;28;20077;-64
2021/08/14 04:22:09;;;;;;;13.60;3.55;;;;;;;;;;5112129;28;20063;-65
2021/08/14 04:24:35;;;;;;;14.77;3.35;;;;;;;;;;5084568;28;20421;-65
2021/08/14 04:27:01;;;;;;;11.07;3.00;;;;;;;;;;5103914;28;20475;-65
2021/08/14 04:29:28;;;;;;;10.55;3.20;;;;;;;;;;5095462;28;20074;-64
2021/08/14 04:31:54;;;;;;;16.23;3.70;;;;;;;;;;5093041;28;20020;-65
2021/08/14 04:34:20;;;;;;;10.30;3.53;;;;;;;;;;5092745;28;20031;-64
2021/08/14 04:36:46;;;;;;;11.77;2.97;;;;;;;;;;5092762;28;20035;-64
2021/08/14 04:39:13;;;;;;;11.65;2.97;;;;;;;;;;5096748;28;20016;-66
2021/08/14 04:41:38;;;;;;;10.40;3.35;;;;;;;;;;5096936;28;20028;-67
2021/08/14 04:44:05;;;;;;;11.93;3.42;;;;;;;;;;5096685;28;20024;-65
2021/08/14 04:46:31;;;;;;;14.25;3.72;;;;;;;;;;5078612;28;20025;-65
2021/08/14 04:48:57;;;;;;;10.48;2.90;;;;;;;;;;5096341;28;20020;-65
2021/08/14 04:51:22;;;;;;;13.93;3.17;;;;;;;;;;5096864;28;20035;-64
2021/08/14 04:53:48;;;;;;;10.40;3.60;;;;;;;;;;5078401;28;20059;-65
2021/08/14 04:56:14;;;;;;;11.93;4.28;;;;;;;;;;5096417;28;20478;-65
2021/08/14 04:58:40;;;;;;;12.85;3.15;;;;;;;;;;5096376;28;20066;-64
2021/08/14 05:01:06;;;;;;;8.02;2.92;;;;;;;;;;5096519;28;20429;-64
2021/08/14 05:03:32;;;;;;;11.13;3.28;;;;;;;;;;5096344;28;20031;-65
2021/08/14 05:05:58;;;;;;;11.63;3.30;;;;;;;;;;5096247;28;20103;-64
2021/08/14 05:08:24;;;;;;;13.77;3.28;;;;;;;;;;5096327;28;20032;-65
2021/08/14 05:10:50;;;;;;;13.77;3.75;;;;;;;;;;5096177;28;20556;-65
2021/08/14 05:13:16;;;;;;;14.85;3.45;;;;;;;;;;5060840;28;20076;-65
2021/08/14 05:15:42;;;;;;;10.38;3.08;;;;;;;;;;4993620;28;20038;-66
2021/08/14 05:18:08;;;;;;;9.07;3.33;;;;;;;;;;4993607;28;20026;-65
2021/08/14 05:20:34;;;;;;;11.77;2.90;;;;;;;;;;5061060;28;20393;-65
2021/08/14 05:23:00;;;;;;;13.57;3.55;;;;;;;;;;4993288;28;20033;-64
2021/08/14 05:25:28;;;;;;;12.70;3.28;;;;;;;;;;5060808;28;20034;-65
2021/08/14 05:27:54;;;;;;;8.70;3.38;;;;;;;;;;4992989;28;20050;-65
2021/08/14 05:30:20;;;;;;;13.48;3.28;;;;;;;;;;5060722;28;20068;-65
2021/08/14 05:32:46;;;;;;;12.57;3.78;;;;;;;;;;4993235;28;20169;-65
2021/08/14 05:35:12;;;;;;;12.23;3.30;;;;;;;;;;4993274;28;20532;-70
2021/08/14 05:37:38;;;;;;;16.35;3.75;;;;;;;;;;4993408;28;20358;-68
2021/08/14 05:40:04;;;;;;;13.40;4.03;;;;;;;;;;4993369;28;20153;-65
2021/08/14 05:42:30;;;;;;;13.98;3.60;;;;;;;;;;4993261;28;20071;-64
2021/08/14 05:44:56;;;;;;;10.95;3.38;;;;;;;;;;4993347;28;20026;-66
2021/08/14 05:47:22;;;;;;;10.18;3.15;;;;;;;;;;5060440;28;20026;-72
2021/08/14 05:49:48;;;;;;;18.90;3.50;;;;;;;;;;4992452;28;20465;-68
2021/08/14 05:52:14;;;;;;;14.35;3.80;;;;;;;;;;4993185;28;20022;-66
2021/08/14 05:54:40;;;;;;;14.40;3.70;;;;;;;;;;4993595;28;20060;-67
2021/08/14 05:57:06;;;;;;;12.65;3.63;;;;;;;;;;5060312;28;20026;-65
2021/08/14 05:59:32;;;;;;;17.70;3.38;;;;;;;;;;5003409;28;20421;-65
2021/08/14 06:01:58;;;;;;;11.98;3.53;;;;;;;;;;5012250;28;20525;-65
2021/08/14 06:04:24;;;;;;;17.52;3.90;;;;;;;;;;5012071;28;20025;-65
2021/08/14 06:06:50;;;;;;;17.40;4.10;;;;;;;;;;5012115;28;20037;-65
2021/08/14 06:09:16;;;;;;;17.98;3.90;;;;;;;;;;5079914;28;20499;-64
2021/08/14 06:11:42;;;;;;;19.55;5.10;;;;;;;;;;5000888;28;20022;-64
2021/08/14 06:14:08;;;;;;;23.42;4.28;;;;;;;;;;5086821;28;20051;-69
2021/08/14 06:16:34;;;;;;;30.15;5.80;;;;;;;;;;5074691;28;20036;-65
2021/08/14 06:19:00;;;;;;;22.88;5.03;;;;;;;;;;5083348;28;20016;-65
2021/08/14 06:21:26;;;;;;;23.92;4.95;;;;;;;;;;5094849;28;20042;-63
2021/08/14 06:23:52;;;;;;;24.85;5.20;;;;;;;;;;5095251;28;20479;-71
2021/08/14 06:26:18;;;;;;;26.63;5.38;;;;;;;;;;5077311;28;20020;-75
2021/08/14 06:28:44;;;;;;;25.20;5.47;;;;;;;;;;5096111;28;20076;-69
2021/08/14 06:31:10;;;;;;;22.23;5.72;;;;;;;;;;5095580;28;20070;-73
2021/08/14 06:33:36;;;;;;;26.95;5.80;;;;;;;;;;5095092;28;20090;-67
2021/08/14 06:36:02;;;;;;;25.25;6.55;;;;;;;;;;5076793;28;20032;-70
2021/08/14 06:38:28;;;;;;;38.60;6.80;;;;;;;;;;5095100;28;20024;-76
2021/08/14 06:40:54;;;;;;;23.08;6.82;;;;;;;;;;5095034;28;20103;-68
2021/08/14 06:43:20;;;;;;;28.35;6.45;;;;;;;;;;5094886;28;20375;-69
2021/08/14 06:45:46;;;;;;;26.75;6.68;;;;;;;;;;5094540;28;20069;-74
2021/08/14 06:48:12;;;;;;;23.95;6.10;;;;;;;;;;5094670;28;20024;-75
2021/08/14 06:50:38;;;;;;;23.27;6.03;;;;;;;;;;5076798;28;20038;-73
2021/08/14 06:53:04;;;;;;;32.22;6.63;;;;;;;;;;5094534;28;20024;-74
2021/08/14 06:55:30;;;;;;;34.30;7.00;;;;;;;;;;5076611;28;20040;-72
2021/08/14 06:57:56;;;;;;;35.17;7.18;;;;;;;;;;5076837;28;20055;-74
2021/08/14 07:00:21;;;;;;;34.78;6.80;;;;;;;;;;5094129;28;20036;-68
2021/08/14 07:02:48;;;;;;;29.50;7.50;;;;;;;;;;5075619;28;20018;-70
2021/08/14 07:05:13;;;;;;;25.52;7.35;;;;;;;;;;5094286;28;20024;-69
2021/08/14 07:07:39;;;;;;;37.22;8.10;;;;;;;;;;5094337;28;20031;-69
2021/08/14 07:10:06;;;;;;;26.33;6.45;;;;;;;;;;5094672;28;20039;-71
2021/08/14 07:12:32;;;;;;;29.80;7.30;;;;;;;;;;5094349;28;20457;-74
2021/08/14 07:14:59;;;;;;;27.58;7.38;;;;;;;;;;5076103;28;20115;-74
2021/08/14 07:17:25;;;;;;;24.70;6.45;;;;;;;;;;5094037;28;20012;-75
2021/08/14 07:19:51;;;;;;;23.20;6.25;;;;;;;;;;5093082;28;20020;-71
2021/08/14 07:22:17;;;;;;;26.38;6.38;;;;;;;;;;5094385;28;20028;-73
2021/08/14 07:24:43;;;;;;;27.98;6.90;;;;;;;;;;5094168;28;20024;-72
2021/08/14 07:27:09;;;;;;;25.50;6.65;;;;;;;;;;5094154;28;20107;-75
2021/08/14 07:29:35;;;;;;;24.00;7.20;;;;;;;;;;5094152;28;20130;-75
2021/08/14 07:32:01;;;;;;;30.80;6.82;;;;;;;;;;5094229;28;20061;-74
2021/08/14 07:34:27;;;;;;;27.15;6.50;;;;;;;;;;5093942;28;20121;-71
2021/08/14 07:36:53;;;;;;;31.98;7.05;;;;;;;;;;5094035;28;20035;-72
2021/08/14 07:39:19;;;;;;;25.25;6.45;;;;;;;;;;5093978;28;20032;-71
2021/08/14 07:41:45;;;;;;;27.13;6.82;;;;;;;;;;5094019;28;20028;-75
2021/08/14 07:44:11;;;;;;;28.63;6.82;;;;;;;;;;5093887;28;20024;-75
2021/08/14 07:46:37;;;;;;;32.10;7.05;;;;;;;;;;5093834;28;20031;-74
2021/08/14 07:49:03;;;;;;;28.23;6.85;;;;;;;;;;5093808;28;20024;-75
2021/08/14 07:51:29;;;;;;;32.97;7.05;;;;;;;;;;5093871;28;20020;-74
2021/08/14 07:53:55;;;;;;;28.67;7.22;;;;;;;;;;5093777;28;20404;-74
2021/08/14 07:56:22;;;;;;;28.95;6.88;;;;;;;;;;5107159;28;20474;-74
2021/08/14 07:58:48;;;;;;;32.55;6.70;;;;;;;;;;5095474;28;20024;-71
2021/08/14 08:01:14;;;;;;;30.17;6.85;;;;;;;;;;5113933;28;20028;-73
2021/08/14 08:03:40;;;;;;;35.80;7.18;;;;;;;;;;5114330;28;20032;-73
2021/08/14 08:06:06;;;;;;;29.17;6.90;;;;;;;;;;5114009;28;20042;-73
2021/08/14 08:08:32;;;;;;;30.15;6.55;;;;;;;;;;5113685;28;20032;-73
2021/08/14 08:10:58;;;;;;;35.10;7.28;;;;;;;;;;5113787;28;20016;-70
2021/08/14 08:13:24;;;;;;;27.40;6.82;;;;;;;;;;5113406;28;20044;-70
2021/08/14 08:15:49;;;;;;;33.05;6.40;;;;;;;;;;5107463;28;20047;-68
2021/08/14 08:18:15;;;;;;;28.48;5.97;;;;;;;;;;5093235;28;20077;-66
2021/08/14 08:20:41;;;;;;;29.67;5.88;;;;;;;;;;5093431;28;20028;-71
2021/08/14 08:23:07;;;;;;;32.47;7.00;;;;;;;;;;5093184;28;20031;-69
2021/08/14 08:25:33;;;;;;;35.33;6.80;;;;;;;;;;5092840;28;20032;-69
2021/08/14 08:28:03;;;;;;;24.50;6.20;;;;;;;;;;5093203;28;20032;-69
2021/08/14 08:30:30;;;;;;;26.30;6.68;;;;;;;;;;5092910;28;20385;-68
2021/08/14 08:32:56;;;;;;;34.72;7.10;;;;;;;;;;5092830;28;20016;-69
2021/08/14 08:35:22;;;;;;;25.83;6.28;;;;;;;;;;5092930;28;20058;-70
2021/08/14 08:37:48;;;;;;;21.45;5.97;;;;;;;;;;5092948;28;20036;-69
2021/08/14 08:40:15;;;;;;;26.25;5.93;;;;;;;;;;5092742;28;20028;-70
2021/08/14 08:42:41;;;;;;;25.73;6.15;;;;;;;;;;5092872;28;20464;-69
2021/08/14 08:45:07;;;;;;;20.80;6.47;;;;;;;;;;5092750;28;20086;-69
2021/08/14 08:47:35;;;;;;;27.10;5.88;;;;;;;;;;5092427;28;20476;-68
2021/08/14 08:50:03;;;;;;;22.27;5.85;;;;;;;;;;5092656;28;20099;-70
2021/08/14 08:52:29;;;;;;;20.25;5.47;;;;;;;;;;5093072;28;20218;-69
2021/08/14 08:54:55;;;;;;;22.33;5.63;;;;;;;;;;5092974;28;20032;-70
2021/08/14 08:57:21;;;;;;;23.52;5.63;;;;;;;;;;5092484;28;20028;-69
2021/08/14 08:59:48;;;;;;;16.83;5.22;;;;;;;;;;5092610;28;20024;-70
2021/08/14 09:02:24;;;;;;;12.90;4.32;;;;;;;;;;5074506;28;20732;-69
2021/08/14 09:05:17;;;;;;;20.33;4.35;;;;;;;;;;5092523;28;20059;-68
2021/08/14 09:07:44;;;;;;;14.77;4.50;;;;;;;;;;5088076;28;20528;-69
2021/08/14 09:10:11;;;;;;;22.77;5.35;;;;;;;;;;5092673;28;20036;-70
2021/08/14 09:12:41;;;;;;;19.10;4.43;;;;;;;;;;5092193;28;20079;-71
2021/08/14 09:15:08;;;;;;;19.10;4.30;;;;;;;;;;5092567;28;20028;-70
2021/08/14 09:17:34;;;;;;;20.75;4.95;;;;;;;;;;5092707;28;20020;-70
2021/08/14 09:20:09;;;;;;;18.58;4.90;;;;;;;;;;5092394;28;20028;-70
2021/08/14 09:22:35;;;;;;;27.13;4.60;;;;;;;;;;5074239;28;20126;-72
2021/08/14 09:25:18;;;;;;;27.77;4.22;;;;;;;;;;5094606;28;20032;-70
2021/08/14 09:27:44;;;;;;;;;;;;;;;;;;5096601;28;20031;-71
2021/08/14 09:30:10;;;;;;;17.15;4.47;;;;;;;;;;5096492;28;19907;-68
2021/08/14 09:32:36;;;;;;;14.73;4.28;;;;;;;;;;5095787;28;20024;-71
2021/08/14 09:35:02;;;;;;;20.05;4.55;;;;;;;;;;5096256;28;20486;-74
2021/08/14 09:37:35;;;;;;;20.58;4.22;;;;;;;;;;5096089;28;20020;-74
2021/08/14 09:40:01;;;;;;;19.42;4.25;;;;;;;;;;5096133;28;20070;-73
2021/08/14 09:42:27;;;;;;;19.63;4.82;;;;;;;;;;5096412;28;20024;-73
2021/08/14 09:45:14;;;;;;;13.32;3.97;;;;;;;;;;5096133;28;20036;-73
2021/08/14 09:47:41;;;;;;;12.30;4.20;;;;;;;;;;5095543;28;20024;-70
2021/08/14 09:50:07;;;;;;;11.40;3.63;;;;;;;;;;5096076;28;20024;-73
2021/08/14 09:52:34;;;;;;;19.80;4.20;;;;;;;;;;5077707;28;20032;-71
2021/08/14 09:54:59;;;;;;;17.67;4.13;;;;;;;;;;5095585;28;20036;-70
2021/08/14 09:57:26;;;;;;;17.70;3.72;;;;;;;;;;5095679;28;20028;-69
2021/08/14 09:59:52;;;;;;;12.23;3.42;;;;;;;;;;5095750;28;20024;-70
2021/08/14 10:02:23;;;;;;;11.00;3.40;;;;;;;;;;5103046;28;20024;-68
2021/08/14 10:04:50;;;;;;;15.60;4.60;;;;;;;;;;5099393;28;20042;-68
2021/08/14 10:07:16;;;;;;;15.48;4.03;;;;;;;;;;5115803;28;20015;-69
2021/08/14 10:09:43;;;;;;;9.50;3.95;;;;;;;;;;5101729;28;20038;-68
2021/08/14 10:12:10;;;;;;;23.60;4.68;;;;;;;;;;5106337;28;20066;-68
2021/08/14 10:14:38;;;;;;;15.02;4.57;;;;;;;;;;5099030;28;20060;-68
2021/08/14 10:17:04;;;;;;;22.63;4.32;;;;;;;;;;5095015;28;20546;-71
2021/08/14 10:19:30;;;;;;;20.65;4.60;;;;;;;;;;5094888;28;20066;-68
2021/08/14 10:21:56;;;;;;;17.90;4.72;;;;;;;;;;5097879;28;20028;-69
2021/08/14 10:24:22;;;;;;;22.23;5.50;;;;;;;;;;5095570;28;20024;-68
2021/08/14 10:26:48;;;;;;;12.23;4.10;;;;;;;;;;5094955;28;20562;-70
2021/08/14 10:29:34;;;;;;;17.92;4.68;;;;;;;;;;5095455;28;20020;-77
2021/08/14 10:32:00;;;;;;;25.10;4.38;;;;;;;;;;5094835;28;20031;-77
2021/08/14 10:34:26;;;;;;;15.55;4.60;;;;;;;;;;5094935;28;20024;-76
2021/08/14 10:36:52;;;;;;;13.77;3.88;;;;;;;;;;5094599;28;20066;-76
2021/08/14 10:39:19;;;;;;;18.83;4.65;;;;;;;;;;5077033;28;20153;-77
2021/08/14 10:41:49;;;;;;;15.93;5.10;;;;;;;;;;5094906;28;20071;-77
2021/08/14 10:44:15;;;;;;;15.90;4.22;;;;;;;;;;5094614;28;20016;-77
2021/08/14 10:46:47;;;;;;;13.00;4.38;;;;;;;;;;5094751;28;20106;-74
2021/08/14 10:49:13;;;;;;;;;;;;;;;;;;5094965;28;20024;-75
2021/08/14 10:51:59;;;;;;;16.67;4.80;;;;;;;;;;5094821;28;19995;-75
2021/08/14 10:54:29;;;;;;;13.10;4.30;;;;;;;;;;5077233;28;20031;-75
2021/08/14 10:56:56;;;;;;;14.43;4.03;;;;;;;;;;5094927;28;20020;-76
2021/08/14 10:59:38;;;;;;;21.20;9.25;;;;;;;;;;5094650;28;20032;-76
2021/08/14 11:02:07;;;;;;;22.15;9.57;;;;;;;;;;5094365;28;20035;-76
2021/08/14 11:04:37;;;;;;;19.63;7.18;;;;;;;;;;5094480;28;20059;-76
2021/08/14 11:07:18;;;;;;;22.35;6.68;;;;;;;;;;5094740;28;20024;-76
2021/08/14 11:10:04;;;;;;;13.90;4.90;;;;;;;;;;5094400;28;20089;-76
2021/08/14 11:12:30;;;;;;;11.90;4.78;;;;;;;;;;5077078;28;20161;-75
2021/08/14 11:15:13;;;;;;;17.50;5.10;;;;;;;;;;5094222;28;20032;-76
2021/08/14 11:17:39;;;;;;;17.30;4.90;;;;;;;;;;5094274;28;20016;-76
2021/08/14 11:20:25;;;;;;;16.55;5.30;;;;;;;;;;5094242;28;20058;-76
2021/08/14 11:22:52;;;;;;;16.75;4.35;;;;;;;;;;5094200;28;20380;-76
2021/08/14 11:25:36;;;;;;;13.07;4.18;;;;;;;;;;5094275;28;20468;-76
2021/08/14 11:28:06;;;;;;;17.27;3.70;;;;;;;;;;5094188;28;20016;-76
2021/08/14 11:30:38;;;;;;;12.98;4.22;;;;;;;;;;5103571;28;20027;-76
2021/08/14 11:33:05;;;;;;;11.55;3.78;;;;;;;;;;5114641;28;20019;-76
2021/08/14 11:35:32;;;;;;;19.35;5.00;;;;;;;;;;5114145;28;20035;-76
2021/08/14 11:38:00;;;;;;;17.60;4.03;;;;;;;;;;5114205;28;20047;-76
2021/08/14 11:40:27;;;;;;;10.98;3.95;;;;;;;;;;5114131;28;20032;-76
2021/08/14 11:42:57;;;;;;;11.73;3.72;;;;;;;;;;5114324;28;20119;-77
2021/08/14 11:45:23;;;;;;;11.52;4.03;;;;;;;;;;5114122;28;20024;-76
2021/08/14 11:47:56;;;;;;;12.77;3.97;;;;;;;;;;5113702;28;20016;-76
2021/08/14 11:50:21;;;;;;;14.23;4.05;;;;;;;;;;5114286;28;20153;-77
2021/08/14 11:52:48;;;;;;;13.25;4.05;;;;;;;;;;5114087;28;20069;-76
2021/08/14 11:55:14;;;;;;;11.68;4.07;;;;;;;;;;5095602;28;20118;-76
2021/08/14 11:57:41;;;;;;;14.35;4.35;;;;;;;;;;5113926;28;20100;-75
2021/08/14 12:00:19;;;;;;;12.52;4.05;;;;;;;;;;5114414;28;20028;-75
2021/08/14 12:02:45;;;;;;;13.98;3.95;;;;;;;;;;5113911;28;20023;-75
2021/08/14 12:05:11;;;;;;;11.75;3.42;;;;;;;;;;5095481;28;20039;-75
2021/08/14 12:07:37;;;;;;;16.80;3.70;;;;;;;;;;5113754;28;20023;-75
2021/08/14 12:10:03;;;;;;;10.75;3.33;;;;;;;;;;5113856;28;20527;-75
2021/08/14 12:12:30;;;;;;;14.88;4.03;;;;;;;;;;5113729;28;20043;-75
2021/08/14 12:14:56;;;;;;;14.55;4.07;;;;;;;;;;5113778;28;20027;-75
2021/08/14 12:17:22;;;;;;;14.50;4.00;;;;;;;;;;5113614;28;20022;-75
2021/08/14 12:19:52;;;;;;;12.27;3.30;;;;;;;;;;5113739;28;20047;-74
2021/08/14 12:22:18;;;;;;;15.93;3.53;;;;;;;;;;5095420;28;20062;-75
2021/08/14 12:24:45;;;;;;;13.48;3.70;;;;;;;;;;5095476;28;20111;-75
2021/08/14 12:27:24;;;;;;;10.93;3.42;;;;;;;;;;5113715;28;20020;-75
2021/08/14 12:29:50;;;;;;;15.70;3.75;;;;;;;;;;5113593;28;20044;-74
2021/08/14 12:32:17;;;;;;;11.48;3.45;;;;;;;;;;5113687;28;20031;-75
2021/08/14 12:34:44;;;;;;;19.77;3.55;;;;;;;;;;5113585;28;20023;-75
2021/08/14 12:37:14;;;;;;;12.38;3.17;;;;;;;;;;5113575;28;20024;-75
2021/08/14 12:39:43;;;;;;;15.60;4.78;;;;;;;;;;5095356;28;20020;-76
2021/08/14 12:42:17;;;;;;;13.07;3.45;;;;;;;;;;5113556;28;20023;-76
2021/08/14 12:44:43;;;;;;;12.40;3.75;;;;;;;;;;5113480;28;20088;-75
2021/08/14 12:47:09;;;;;;;10.02;3.60;;;;;;;;;;5113269;28;20051;-75
2021/08/14 12:49:35;;;;;;;14.95;3.50;;;;;;;;;;5113517;28;20055;-75
2021/08/14 12:52:04;;;;;;;10.90;3.88;;;;;;;;;;5113308;28;20089;-75
2021/08/14 12:54:32;;;;;;;10.25;3.13;;;;;;;;;;5113388;28;20023;-76
2021/08/14 12:57:01;;;;;;;14.65;3.10;;;;;;;;;;5113155;28;20501;-75
2021/08/14 12:59:27;;;;;;;13.57;3.20;;;;;;;;;;5114254;28;20052;-71
2021/08/14 13:02:06;;;;;;;12.48;3.20;;;;;;;;;;5117357;28;20141;-73
2021/08/14 13:04:33;;;;;;;11.10;3.92;;;;;;;;;;5117275;28;20020;-73
2021/08/14 13:06:59;;;;;;;9.07;3.17;;;;;;;;;;5117237;28;20031;-72
2021/08/14 13:09:25;;;;;;;10.50;3.78;;;;;;;;;;5117192;28;20020;-73
2021/08/14 13:11:52;;;;;;;30.20;3.90;;;;;;;;;;5098836;28;20027;-74
2021/08/14 13:14:18;;;;;;;16.63;4.00;;;;;;;;;;5116954;28;20528;-73
2021/08/14 13:16:44;;;;;;;21.55;3.65;;;;;;;;;;5116716;28;20107;-73
2021/08/14 13:19:11;;;;;;;12.50;3.72;;;;;;;;;;5098995;28;20038;-73
2021/08/14 13:21:37;;;;;;;15.95;3.22;;;;;;;;;;5117438;28;20140;-73
2021/08/14 13:24:07;;;;;;;12.57;3.15;;;;;;;;;;5116924;28;20023;-74
2021/08/14 13:26:33;;;;;;;12.40;3.10;;;;;;;;;;5117075;28;20020;-73
2021/08/14 13:28:59;;;;;;;14.43;2.90;;;;;;;;;;5098579;28;20036;-73
2021/08/14 13:31:25;;;;;;;7.90;2.88;;;;;;;;;;5116773;28;20019;-74
2021/08/14 13:33:51;;;;;;;10.18;2.92;;;;;;;;;;5116767;28;20031;-73
2021/08/14 13:36:17;;;;;;;9.30;3.20;;;;;;;;;;5098392;28;20032;-73
2021/08/14 13:38:44;;;;;;;6.45;2.55;;;;;;;;;;5116691;28;20019;-73
2021/08/14 13:41:10;;;;;;;9.13;3.17;;;;;;;;;;5116468;28;20474;-73
2021/08/14 13:43:36;;;;;;;12.00;3.03;;;;;;;;;;5098286;28;20434;-73
2021/08/14 13:46:02;;;;;;;10.07;3.10;;;;;;;;;;5116628;28;20024;-73
2021/08/14 13:48:28;;;;;;;8.70;3.08;;;;;;;;;;5116306;28;20374;-73
2021/08/14 13:50:55;;;;;;;9.13;2.97;;;;;;;;;;5116453;28;20023;-73
2021/08/14 13:53:20;;;;;;;7.05;2.78;;;;;;;;;;5097845;28;20016;-73
2021/08/14 13:55:47;;;;;;;10.60;3.15;;;;;;;;;;5107459;28;20040;-74
2021/08/14 13:58:13;;;;;;;9.23;3.33;;;;;;;;;;5096091;28;20107;-74
2021/08/14 14:00:41;;;;;;;9.23;3.38;;;;;;;;;;5096259;28;20098;-73
2021/08/14 14:03:07;;;;;;;9.40;3.53;;;;;;;;;;5095763;28;20027;-73
2021/08/14 14:05:33;;;;;;;10.48;3.60;;;;;;;;;;5095677;28;20375;-74
2021/08/14 14:07:59;;;;;;;9.90;3.92;;;;;;;;;;5095614;28;20028;-73
2021/08/14 14:10:25;;;;;;;7.32;3.55;;;;;;;;;;5095011;28;20024;-74
2021/08/14 14:12:51;;;;;;;11.02;3.30;;;;;;;;;;5095167;28;20123;-73
2021/08/14 14:15:17;;;;;;;9.77;3.85;;;;;;;;;;5095380;28;20483;-74
2021/08/14 14:17:43;;;;;;;8.77;3.75;;;;;;;;;;5077214;28;20122;-73
2021/08/14 14:20:09;;;;;;;10.73;3.70;;;;;;;;;;5095667;28;20031;-74
2021/08/14 14:22:35;;;;;;;9.70;3.08;;;;;;;;;;5095464;28;20028;-73
2021/08/14 14:25:01;;;;;;;8.35;3.05;;;;;;;;;;5077341;28;20144;-73
2021/08/14 14:27:27;;;;;;;7.22;3.45;;;;;;;;;;5095289;28;20502;-73
2021/08/14 14:29:53;;;;;;;8.60;3.97;;;;;;;;;;5095306;28;20403;-73
2021/08/14 14:32:19;;;;;;;11.85;4.13;;;;;;;;;;5095244;28;20032;-74